sensor_id;sensor_type;location;lat;lon;timestamp;P1;durP1;ratioP1;P2;durP2;ratioP2
65477;SDS011;53678;39.642;22.430;2024-02-28T00:00:27;23.52;;;13.32;;
65477;SDS011;53678;39.642;22.430;2024-02-28T00:02:53;24.90;;;13.15;;
65477;SDS011;53678;39.642;22.430;2024-02-28T00:05:19;22.77;;;14.13;;
65477;SDS011;53678;39.642;22.430;2024-02-28T00:07:47;26.52;;;14.27;;
65477;SDS011;53678;39.642;22.430;2024-02-28T00:10:13;23.33;;;14.65;;
65477;SDS011;53678;39.642;22.430;2024-02-28T00:12:39;27.10;;;14.60;;
65477;SDS011;53678;39.642;22.430;2024-02-28T00:15:06;27.02;;;14.25;;
65477;SDS011;53678;39.642;22.430;2024-02-28T00:17:39;23.35;;;13.55;;
65477;SDS011;53678;39.642;22.430;2024-02-28T00:20:07;24.42;;;13.38;;
65477;SDS011;53678;39.642;22.430;2024-02-28T00:22:34;24.38;;;14.02;;
65477;SDS011;53678;39.642;22.430;2024-02-28T00:25:02;31.63;;;14.95;;
65477;SDS011;53678;39.642;22.430;2024-02-28T00:27:28;26.90;;;13.75;;
65477;SDS011;53678;39.642;22.430;2024-02-28T00:29:54;25.55;;;13.63;;
65477;SDS011;53678;39.642;22.430;2024-02-28T00:32:21;25.15;;;13.48;;
65477;SDS011;53678;39.642;22.430;2024-02-28T00:34:46;23.67;;;13.57;;
65477;SDS011;53678;39.642;22.430;2024-02-28T00:37:12;25.73;;;14.38;;
65477;SDS011;53678;39.642;22.430;2024-02-28T00:39:38;22.65;;;13.77;;
65477;SDS011;53678;39.642;22.430;2024-02-28T00:42:04;29.67;;;14.18;;
65477;SDS011;53678;39.642;22.430;2024-02-28T00:44:29;21.30;;;13.30;;
65477;SDS011;53678;39.642;22.430;2024-02-28T00:46:55;23.67;;;12.60;;
65477;SDS011;53678;39.642;22.430;2024-02-28T00:49:21;22.33;;;12.60;;
65477;SDS011;53678;39.642;22.430;2024-02-28T00:51:47;37.42;;;15.13;;
65477;SDS011;53678;39.642;22.430;2024-02-28T00:54:13;24.73;;;13.80;;
65477;SDS011;53678;39.642;22.430;2024-02-28T00:56:39;22.35;;;13.25;;
65477;SDS011;53678;39.642;22.430;2024-02-28T00:59:04;31.52;;;15.50;;
65477;SDS011;53678;39.642;22.430;2024-02-28T01:01:31;24.77;;;14.57;;
65477;SDS011;53678;39.642;22.430;2024-02-28T01:03:57;24.05;;;15.05;;
65477;SDS011;53678;39.642;22.430;2024-02-28T01:06:23;33.22;;;15.93;;
65477;SDS011;53678;39.642;22.430;2024-02-28T01:08:49;22.63;;;15.43;;
65477;SDS011;53678;39.642;22.430;2024-02-28T01:11:15;22.77;;;14.18;;
65477;SDS011;53678;39.642;22.430;2024-02-28T01:13:40;27.20;;;15.07;;
65477;SDS011;53678;39.642;22.430;2024-02-28T01:16:06;30.05;;;16.40;;
65477;SDS011;53678;39.642;22.430;2024-02-28T01:18:32;29.25;;;16.10;;
65477;SDS011;53678;39.642;22.430;2024-02-28T01:20:58;27.33;;;15.20;;
65477;SDS011;53678;39.642;22.430;2024-02-28T01:23:24;23.60;;;14.98;;
65477;SDS011;53678;39.642;22.430;2024-02-28T01:25:50;27.35;;;15.48;;
65477;SDS011;53678;39.642;22.430;2024-02-28T01:28:15;25.13;;;15.77;;
65477;SDS011;53678;39.642;22.430;2024-02-28T01:30:41;25.98;;;14.65;;
65477;SDS011;53678;39.642;22.430;2024-02-28T01:33:07;25.65;;;14.55;;
65477;SDS011;53678;39.642;22.430;2024-02-28T01:35:33;27.70;;;15.60;;
65477;SDS011;53678;39.642;22.430;2024-02-28T01:37:58;25.08;;;14.10;;
65477;SDS011;53678;39.642;22.430;2024-02-28T01:40:24;23.38;;;14.32;;
65477;SDS011;53678;39.642;22.430;2024-02-28T01:42:50;23.10;;;15.55;;
65477;SDS011;53678;39.642;22.430;2024-02-28T01:45:16;24.55;;;15.35;;
65477;SDS011;53678;39.642;22.430;2024-02-28T01:47:42;24.27;;;16.60;;
65477;SDS011;53678;39.642;22.430;2024-02-28T01:50:08;26.77;;;17.35;;
65477;SDS011;53678;39.642;22.430;2024-02-28T01:52:36;33.70;;;17.88;;
65477;SDS011;53678;39.642;22.430;2024-02-28T01:55:04;25.83;;;16.85;;
65477;SDS011;53678;39.642;22.430;2024-02-28T01:57:31;23.23;;;13.48;;
65477;SDS011;53678;39.642;22.430;2024-02-28T01:59:58;20.67;;;13.65;;
65477;SDS011;53678;39.642;22.430;2024-02-28T02:02:25;24.95;;;14.02;;
65477;SDS011;53678;39.642;22.430;2024-02-28T02:04:50;29.20;;;14.75;;
65477;SDS011;53678;39.642;22.430;2024-02-28T02:07:18;21.08;;;13.65;;
65477;SDS011;53678;39.642;22.430;2024-02-28T02:09:46;24.08;;;13.75;;
65477;SDS011;53678;39.642;22.430;2024-02-28T02:12:11;25.33;;;13.73;;
65477;SDS011;53678;39.642;22.430;2024-02-28T02:14:37;26.23;;;15.23;;
65477;SDS011;53678;39.642;22.430;2024-02-28T02:17:03;25.17;;;14.35;;
65477;SDS011;53678;39.642;22.430;2024-02-28T02:19:29;29.60;;;16.17;;
65477;SDS011;53678;39.642;22.430;2024-02-28T02:21:57;26.25;;;15.45;;
65477;SDS011;53678;39.642;22.430;2024-02-28T02:24:23;32.28;;;15.95;;
65477;SDS011;53678;39.642;22.430;2024-02-28T02:26:54;23.40;;;15.45;;
65477;SDS011;53678;39.642;22.430;2024-02-28T02:29:20;24.10;;;16.17;;
65477;SDS011;53678;39.642;22.430;2024-02-28T02:31:46;30.17;;;17.08;;
65477;SDS011;53678;39.642;22.430;2024-02-28T02:34:12;26.63;;;17.38;;
65477;SDS011;53678;39.642;22.430;2024-02-28T02:36:38;29.75;;;17.17;;
65477;SDS011;53678;39.642;22.430;2024-02-28T02:39:03;32.78;;;18.73;;
65477;SDS011;53678;39.642;22.430;2024-02-28T02:41:29;31.25;;;17.13;;
65477;SDS011;53678;39.642;22.430;2024-02-28T02:43:55;26.92;;;16.95;;
65477;SDS011;53678;39.642;22.430;2024-02-28T02:46:23;30.00;;;16.67;;
65477;SDS011;53678;39.642;22.430;2024-02-28T02:48:48;26.13;;;16.70;;
65477;SDS011;53678;39.642;22.430;2024-02-28T02:51:14;23.58;;;15.57;;
65477;SDS011;53678;39.642;22.430;2024-02-28T02:53:40;28.05;;;15.90;;
65477;SDS011;53678;39.642;22.430;2024-02-28T02:56:06;27.50;;;16.58;;
65477;SDS011;53678;39.642;22.430;2024-02-28T02:58:32;23.98;;;14.38;;
65477;SDS011;53678;39.642;22.430;2024-02-28T03:00:57;28.65;;;17.10;;
65477;SDS011;53678;39.642;22.430;2024-02-28T03:03:23;25.13;;;15.25;;
65477;SDS011;53678;39.642;22.430;2024-02-28T03:05:49;26.50;;;16.15;;
65477;SDS011;53678;39.642;22.430;2024-02-28T03:08:15;20.95;;;14.07;;
65477;SDS011;53678;39.642;22.430;2024-02-28T03:10:40;28.67;;;15.77;;
65477;SDS011;53678;39.642;22.430;2024-02-28T03:13:06;31.80;;;15.32;;
65477;SDS011;53678;39.642;22.430;2024-02-28T03:15:32;28.55;;;15.55;;
65477;SDS011;53678;39.642;22.430;2024-02-28T03:17:59;24.17;;;15.25;;
65477;SDS011;53678;39.642;22.430;2024-02-28T03:20:25;26.98;;;15.27;;
65477;SDS011;53678;39.642;22.430;2024-02-28T03:22:51;22.85;;;15.23;;
65477;SDS011;53678;39.642;22.430;2024-02-28T03:25:17;24.58;;;14.77;;
65477;SDS011;53678;39.642;22.430;2024-02-28T03:27:42;32.55;;;15.88;;
65477;SDS011;53678;39.642;22.430;2024-02-28T03:30:08;26.30;;;14.68;;
65477;SDS011;53678;39.642;22.430;2024-02-28T03:32:34;23.73;;;14.70;;
65477;SDS011;53678;39.642;22.430;2024-02-28T03:35:00;23.42;;;14.52;;
65477;SDS011;53678;39.642;22.430;2024-02-28T03:37:25;25.63;;;15.02;;
65477;SDS011;53678;39.642;22.430;2024-02-28T03:39:51;23.45;;;14.07;;
65477;SDS011;53678;39.642;22.430;2024-02-28T03:42:17;23.73;;;14.25;;
65477;SDS011;53678;39.642;22.430;2024-02-28T03:44:43;28.10;;;13.93;;
65477;SDS011;53678;39.642;22.430;2024-02-28T03:47:09;24.95;;;12.88;;
65477;SDS011;53678;39.642;22.430;2024-02-28T03:49:34;28.45;;;15.07;;
65477;SDS011;53678;39.642;22.430;2024-02-28T03:52:01;24.45;;;13.82;;
65477;SDS011;53678;39.642;22.430;2024-02-28T03:54:26;20.00;;;13.98;;
65477;SDS011;53678;39.642;22.430;2024-02-28T03:56:52;19.35;;;12.85;;
65477;SDS011;53678;39.642;22.430;2024-02-28T03:59:18;24.70;;;15.00;;
65477;SDS011;53678;39.642;22.430;2024-02-28T04:01:44;23.30;;;14.98;;
65477;SDS011;53678;39.642;22.430;2024-02-28T04:04:11;24.48;;;15.57;;
65477;SDS011;53678;39.642;22.430;2024-02-28T04:06:37;27.60;;;14.95;;
65477;SDS011;53678;39.642;22.430;2024-02-28T04:09:02;32.33;;;15.25;;
65477;SDS011;53678;39.642;22.430;2024-02-28T04:11:29;30.73;;;15.77;;
65477;SDS011;53678;39.642;22.430;2024-02-28T04:13:55;35.90;;;17.10;;
65477;SDS011;53678;39.642;22.430;2024-02-28T04:16:20;25.63;;;15.32;;
65477;SDS011;53678;39.642;22.430;2024-02-28T04:18:46;24.90;;;15.45;;
65477;SDS011;53678;39.642;22.430;2024-02-28T04:21:11;27.90;;;16.15;;
65477;SDS011;53678;39.642;22.430;2024-02-28T04:23:37;24.02;;;14.73;;
65477;SDS011;53678;39.642;22.430;2024-02-28T04:26:03;21.83;;;15.00;;
65477;SDS011;53678;39.642;22.430;2024-02-28T04:28:29;27.52;;;15.20;;
65477;SDS011;53678;39.642;22.430;2024-02-28T04:30:55;20.45;;;13.30;;
65477;SDS011;53678;39.642;22.430;2024-02-28T04:33:22;21.48;;;12.90;;
65477;SDS011;53678;39.642;22.430;2024-02-28T04:35:48;21.13;;;13.07;;
65477;SDS011;53678;39.642;22.430;2024-02-28T04:38:13;23.23;;;13.15;;
65477;SDS011;53678;39.642;22.430;2024-02-28T04:40:39;19.33;;;13.02;;
65477;SDS011;53678;39.642;22.430;2024-02-28T04:43:05;24.63;;;13.68;;
65477;SDS011;53678;39.642;22.430;2024-02-28T04:45:31;27.85;;;14.90;;
65477;SDS011;53678;39.642;22.430;2024-02-28T04:47:56;26.77;;;13.50;;
65477;SDS011;53678;39.642;22.430;2024-02-28T04:50:23;22.50;;;13.98;;
65477;SDS011;53678;39.642;22.430;2024-02-28T04:52:49;30.73;;;14.25;;
65477;SDS011;53678;39.642;22.430;2024-02-28T04:55:15;23.30;;;13.80;;
65477;SDS011;53678;39.642;22.430;2024-02-28T04:57:40;24.50;;;13.57;;
65477;SDS011;53678;39.642;22.430;2024-02-28T05:00:06;24.63;;;14.50;;
65477;SDS011;53678;39.642;22.430;2024-02-28T05:02:48;20.02;;;12.77;;
65477;SDS011;53678;39.642;22.430;2024-02-28T05:05:14;27.17;;;14.57;;
65477;SDS011;53678;39.642;22.430;2024-02-28T05:07:39;25.10;;;13.77;;
65477;SDS011;53678;39.642;22.430;2024-02-28T05:10:05;23.20;;;13.68;;
65477;SDS011;53678;39.642;22.430;2024-02-28T05:12:32;21.17;;;13.27;;
65477;SDS011;53678;39.642;22.430;2024-02-28T05:14:57;24.92;;;13.00;;
65477;SDS011;53678;39.642;22.430;2024-02-28T05:17:23;26.85;;;13.80;;
65477;SDS011;53678;39.642;22.430;2024-02-28T05:19:49;23.75;;;13.55;;
65477;SDS011;53678;39.642;22.430;2024-02-28T05:22:15;23.73;;;13.05;;
65477;SDS011;53678;39.642;22.430;2024-02-28T05:24:40;25.33;;;13.38;;
65477;SDS011;53678;39.642;22.430;2024-02-28T05:27:09;18.67;;;13.82;;
65477;SDS011;53678;39.642;22.430;2024-02-28T05:29:34;22.83;;;14.32;;
65477;SDS011;53678;39.642;22.430;2024-02-28T05:32:01;26.85;;;13.45;;
65477;SDS011;53678;39.642;22.430;2024-02-28T05:34:27;21.55;;;13.65;;
65477;SDS011;53678;39.642;22.430;2024-02-28T05:36:53;30.88;;;16.42;;
65477;SDS011;53678;39.642;22.430;2024-02-28T05:39:18;21.30;;;12.52;;
65477;SDS011;53678;39.642;22.430;2024-02-28T05:41:45;23.35;;;13.73;;
65477;SDS011;53678;39.642;22.430;2024-02-28T05:44:12;26.45;;;12.57;;
65477;SDS011;53678;39.642;22.430;2024-02-28T05:46:37;23.17;;;14.30;;
65477;SDS011;53678;39.642;22.430;2024-02-28T05:49:03;25.15;;;13.60;;
65477;SDS011;53678;39.642;22.430;2024-02-28T05:51:31;26.38;;;13.38;;
65477;SDS011;53678;39.642;22.430;2024-02-28T05:53:56;23.13;;;12.50;;
65477;SDS011;53678;39.642;22.430;2024-02-28T05:56:22;24.35;;;13.27;;
65477;SDS011;53678;39.642;22.430;2024-02-28T05:58:49;29.67;;;13.85;;
65477;SDS011;53678;39.642;22.430;2024-02-28T06:01:15;34.55;;;13.98;;
65477;SDS011;53678;39.642;22.430;2024-02-28T06:03:42;18.83;;;13.10;;
65477;SDS011;53678;39.642;22.430;2024-02-28T06:06:10;36.58;;;16.55;;
65477;SDS011;53678;39.642;22.430;2024-02-28T06:08:37;37.28;;;16.05;;
65477;SDS011;53678;39.642;22.430;2024-02-28T06:11:04;37.20;;;16.83;;
65477;SDS011;53678;39.642;22.430;2024-02-28T06:13:30;34.03;;;17.15;;
65477;SDS011;53678;39.642;22.430;2024-02-28T06:15:56;31.77;;;16.65;;
65477;SDS011;53678;39.642;22.430;2024-02-28T06:18:23;29.73;;;16.30;;
65477;SDS011;53678;39.642;22.430;2024-02-28T06:20:55;39.58;;;16.55;;
65477;SDS011;53678;39.642;22.430;2024-02-28T06:23:24;36.58;;;16.42;;
65477;SDS011;53678;39.642;22.430;2024-02-28T06:25:50;31.80;;;17.30;;
65477;SDS011;53678;39.642;22.430;2024-02-28T06:28:17;35.63;;;17.27;;
65477;SDS011;53678;39.642;22.430;2024-02-28T06:30:45;30.98;;;15.50;;
65477;SDS011;53678;39.642;22.430;2024-02-28T06:33:12;31.75;;;16.40;;
65477;SDS011;53678;39.642;22.430;2024-02-28T06:35:38;33.58;;;18.77;;
65477;SDS011;53678;39.642;22.430;2024-02-28T06:38:04;39.20;;;18.52;;
65477;SDS011;53678;39.642;22.430;2024-02-28T06:40:29;34.22;;;17.15;;
65477;SDS011;53678;39.642;22.430;2024-02-28T06:42:55;42.08;;;18.58;;
65477;SDS011;53678;39.642;22.430;2024-02-28T06:45:21;42.25;;;18.70;;
65477;SDS011;53678;39.642;22.430;2024-02-28T06:47:48;34.17;;;17.67;;
65477;SDS011;53678;39.642;22.430;2024-02-28T06:50:14;48.35;;;18.95;;
65477;SDS011;53678;39.642;22.430;2024-02-28T06:52:41;51.58;;;19.90;;
65477;SDS011;53678;39.642;22.430;2024-02-28T06:55:07;57.85;;;20.00;;
65477;SDS011;53678;39.642;22.430;2024-02-28T06:57:40;47.75;;;18.13;;
65477;SDS011;53678;39.642;22.430;2024-02-28T07:00:09;34.30;;;17.92;;
65477;SDS011;53678;39.642;22.430;2024-02-28T07:02:44;44.22;;;18.65;;
65477;SDS011;53678;39.642;22.430;2024-02-28T07:05:10;50.35;;;19.10;;
65477;SDS011;53678;39.642;22.430;2024-02-28T07:07:36;52.78;;;19.90;;
65477;SDS011;53678;39.642;22.430;2024-02-28T07:10:02;31.10;;;16.58;;
65477;SDS011;53678;39.642;22.430;2024-02-28T07:12:29;47.25;;;17.25;;
65477;SDS011;53678;39.642;22.430;2024-02-28T07:14:56;31.75;;;17.10;;
65477;SDS011;53678;39.642;22.430;2024-02-28T07:17:22;30.60;;;16.92;;
65477;SDS011;53678;39.642;22.430;2024-02-28T07:19:48;26.55;;;15.25;;
65477;SDS011;53678;39.642;22.430;2024-02-28T07:22:14;29.25;;;14.63;;
65477;SDS011;53678;39.642;22.430;2024-02-28T07:24:41;23.00;;;14.60;;
65477;SDS011;53678;39.642;22.430;2024-02-28T07:27:06;19.30;;;13.25;;
65477;SDS011;53678;39.642;22.430;2024-02-28T07:29:34;32.35;;;15.70;;
65477;SDS011;53678;39.642;22.430;2024-02-28T07:32:00;20.92;;;13.20;;
65477;SDS011;53678;39.642;22.430;2024-02-28T07:34:27;23.15;;;13.00;;
65477;SDS011;53678;39.642;22.430;2024-02-28T07:36:54;22.42;;;13.65;;
65477;SDS011;53678;39.642;22.430;2024-02-28T07:39:21;28.52;;;13.70;;
65477;SDS011;53678;39.642;22.430;2024-02-28T07:41:47;21.80;;;12.82;;
65477;SDS011;53678;39.642;22.430;2024-02-28T07:44:12;23.42;;;12.23;;
65477;SDS011;53678;39.642;22.430;2024-02-28T07:46:40;26.67;;;11.50;;
65477;SDS011;53678;39.642;22.430;2024-02-28T07:49:06;26.80;;;13.68;;
65477;SDS011;53678;39.642;22.430;2024-02-28T07:51:32;18.33;;;10.93;;
65477;SDS011;53678;39.642;22.430;2024-02-28T07:53:58;20.75;;;10.68;;
65477;SDS011;53678;39.642;22.430;2024-02-28T07:56:24;15.48;;;10.13;;
65477;SDS011;53678;39.642;22.430;2024-02-28T07:58:50;24.83;;;11.38;;
65477;SDS011;53678;39.642;22.430;2024-02-28T08:01:16;17.52;;;11.02;;
65477;SDS011;53678;39.642;22.430;2024-02-28T08:03:42;18.30;;;10.70;;
65477;SDS011;53678;39.642;22.430;2024-02-28T08:06:10;17.33;;;9.18;;
65477;SDS011;53678;39.642;22.430;2024-02-28T08:08:37;16.98;;;10.38;;
65477;SDS011;53678;39.642;22.430;2024-02-28T08:11:04;19.90;;;10.52;;
65477;SDS011;53678;39.642;22.430;2024-02-28T08:13:30;15.27;;;9.38;;
65477;SDS011;53678;39.642;22.430;2024-02-28T08:15:58;15.35;;;8.73;;
65477;SDS011;53678;39.642;22.430;2024-02-28T08:18:24;14.48;;;9.18;;
65477;SDS011;53678;39.642;22.430;2024-02-28T08:20:50;13.07;;;8.50;;
65477;SDS011;53678;39.642;22.430;2024-02-28T08:23:18;18.55;;;8.27;;
65477;SDS011;53678;39.642;22.430;2024-02-28T08:25:46;25.67;;;9.15;;
65477;SDS011;53678;39.642;22.430;2024-02-28T08:28:11;12.77;;;6.45;;
65477;SDS011;53678;39.642;22.430;2024-02-28T08:30:37;8.75;;;6.25;;
65477;SDS011;53678;39.642;22.430;2024-02-28T08:33:05;11.73;;;6.18;;
65477;SDS011;53678;39.642;22.430;2024-02-28T08:35:32;12.18;;;5.53;;
65477;SDS011;53678;39.642;22.430;2024-02-28T08:37:58;17.65;;;6.95;;
65477;SDS011;53678;39.642;22.430;2024-02-28T08:40:23;14.98;;;7.63;;
65477;SDS011;53678;39.642;22.430;2024-02-28T08:42:49;15.45;;;7.47;;
65477;SDS011;53678;39.642;22.430;2024-02-28T08:45:18;14.65;;;7.90;;
65477;SDS011;53678;39.642;22.430;2024-02-28T08:47:45;18.90;;;7.70;;
65477;SDS011;53678;39.642;22.430;2024-02-28T08:50:10;13.35;;;6.53;;
65477;SDS011;53678;39.642;22.430;2024-02-28T08:52:36;15.15;;;7.57;;
65477;SDS011;53678;39.642;22.430;2024-02-28T08:55:02;14.48;;;6.95;;
65477;SDS011;53678;39.642;22.430;2024-02-28T08:57:28;15.82;;;7.13;;
65477;SDS011;53678;39.642;22.430;2024-02-28T08:59:55;18.45;;;7.85;;
65477;SDS011;53678;39.642;22.430;2024-02-28T09:02:22;13.32;;;7.57;;
65477;SDS011;53678;39.642;22.430;2024-02-28T09:04:48;14.77;;;7.13;;
65477;SDS011;53678;39.642;22.430;2024-02-28T09:07:18;13.27;;;6.90;;
65477;SDS011;53678;39.642;22.430;2024-02-28T09:09:47;15.55;;;7.25;;
65477;SDS011;53678;39.642;22.430;2024-02-28T09:12:13;18.65;;;7.78;;
65477;SDS011;53678;39.642;22.430;2024-02-28T09:14:40;12.15;;;7.15;;
65477;SDS011;53678;39.642;22.430;2024-02-28T09:17:06;15.60;;;8.00;;
65477;SDS011;53678;39.642;22.430;2024-02-28T09:19:32;13.82;;;6.97;;
65477;SDS011;53678;39.642;22.430;2024-02-28T09:21:58;12.30;;;6.95;;
65477;SDS011;53678;39.642;22.430;2024-02-28T09:24:24;14.48;;;7.43;;
65477;SDS011;53678;39.642;22.430;2024-02-28T09:26:50;11.98;;;6.82;;
65477;SDS011;53678;39.642;22.430;2024-02-28T09:29:16;14.30;;;7.60;;
65477;SDS011;53678;39.642;22.430;2024-02-28T09:31:43;14.65;;;7.60;;
65477;SDS011;53678;39.642;22.430;2024-02-28T09:34:09;13.18;;;7.50;;
65477;SDS011;53678;39.642;22.430;2024-02-28T09:36:41;16.05;;;7.22;;
65477;SDS011;53678;39.642;22.430;2024-02-28T09:39:08;12.82;;;7.22;;
65477;SDS011;53678;39.642;22.430;2024-02-28T09:41:34;17.83;;;7.30;;
65477;SDS011;53678;39.642;22.430;2024-02-28T09:44:00;13.00;;;6.63;;
65477;SDS011;53678;39.642;22.430;2024-02-28T09:46:28;12.52;;;7.10;;
65477;SDS011;53678;39.642;22.430;2024-02-28T09:48:54;13.98;;;7.10;;
65477;SDS011;53678;39.642;22.430;2024-02-28T09:51:21;18.85;;;7.60;;
65477;SDS011;53678;39.642;22.430;2024-02-28T09:53:49;10.40;;;6.55;;
65477;SDS011;53678;39.642;22.430;2024-02-28T09:56:16;13.07;;;7.53;;
65477;SDS011;53678;39.642;22.430;2024-02-28T09:58:41;14.25;;;7.45;;
65477;SDS011;53678;39.642;22.430;2024-02-28T10:01:08;20.17;;;8.90;;
65477;SDS011;53678;39.642;22.430;2024-02-28T10:03:36;15.43;;;8.73;;
65477;SDS011;53678;39.642;22.430;2024-02-28T10:06:04;15.25;;;8.23;;
65477;SDS011;53678;39.642;22.430;2024-02-28T10:08:30;14.20;;;7.85;;
65477;SDS011;53678;39.642;22.430;2024-02-28T10:10:57;16.95;;;8.57;;
65477;SDS011;53678;39.642;22.430;2024-02-28T10:13:23;18.80;;;8.55;;
65477;SDS011;53678;39.642;22.430;2024-02-28T10:15:50;15.77;;;8.13;;
65477;SDS011;53678;39.642;22.430;2024-02-28T10:18:16;16.27;;;9.35;;
65477;SDS011;53678;39.642;22.430;2024-02-28T10:20:42;18.05;;;9.20;;
65477;SDS011;53678;39.642;22.430;2024-02-28T10:23:08;15.25;;;8.23;;
65477;SDS011;53678;39.642;22.430;2024-02-28T10:28:13;14.52;;;8.45;;
65477;SDS011;53678;39.642;22.430;2024-02-28T10:30:41;14.93;;;8.60;;
65477;SDS011;53678;39.642;22.430;2024-02-28T10:33:11;17.52;;;9.70;;
65477;SDS011;53678;39.642;22.430;2024-02-28T10:35:41;14.90;;;9.40;;
65477;SDS011;53678;39.642;22.430;2024-02-28T10:38:12;20.38;;;8.82;;
65477;SDS011;53678;39.642;22.430;2024-02-28T10:40:41;12.82;;;8.50;;
65477;SDS011;53678;39.642;22.430;2024-02-28T10:43:08;15.07;;;8.65;;
65477;SDS011;53678;39.642;22.430;2024-02-28T10:45:37;18.10;;;9.13;;
65477;SDS011;53678;39.642;22.430;2024-02-28T10:48:06;19.58;;;10.02;;
65477;SDS011;53678;39.642;22.430;2024-02-28T10:50:33;17.25;;;7.63;;
65477;SDS011;53678;39.642;22.430;2024-02-28T10:53:03;14.15;;;8.13;;
65477;SDS011;53678;39.642;22.430;2024-02-28T10:55:32;14.48;;;8.77;;
65477;SDS011;53678;39.642;22.430;2024-02-28T10:58:02;16.75;;;9.07;;
65477;SDS011;53678;39.642;22.430;2024-02-28T11:00:32;15.00;;;8.02;;
65477;SDS011;53678;39.642;22.430;2024-02-28T11:02:59;16.73;;;8.00;;
65477;SDS011;53678;39.642;22.430;2024-02-28T11:05:38;17.10;;;9.07;;
65477;SDS011;53678;39.642;22.430;2024-02-28T11:08:27;17.73;;;9.70;;
65477;SDS011;53678;39.642;22.430;2024-02-28T11:11:02;21.23;;;10.20;;
65477;SDS011;53678;39.642;22.430;2024-02-28T11:13:33;16.92;;;8.52;;
65477;SDS011;53678;39.642;22.430;2024-02-28T11:16:09;13.50;;;8.02;;
65477;SDS011;53678;39.642;22.430;2024-02-28T11:18:35;17.17;;;9.68;;
65477;SDS011;53678;39.642;22.430;2024-02-28T11:21:02;15.38;;;9.20;;
65477;SDS011;53678;39.642;22.430;2024-02-28T11:23:38;17.85;;;9.80;;
65477;SDS011;53678;39.642;22.430;2024-02-28T11:26:05;18.10;;;11.73;;
65477;SDS011;53678;39.642;22.430;2024-02-28T11:28:30;16.05;;;10.95;;
65477;SDS011;53678;39.642;22.430;2024-02-28T11:30:56;20.65;;;10.82;;
65477;SDS011;53678;39.642;22.430;2024-02-28T11:33:24;23.17;;;11.60;;
65477;SDS011;53678;39.642;22.430;2024-02-28T11:35:58;19.67;;;11.63;;
65477;SDS011;53678;39.642;22.430;2024-02-28T11:38:25;20.60;;;11.35;;
65477;SDS011;53678;39.642;22.430;2024-02-28T11:40:51;21.83;;;11.48;;
65477;SDS011;53678;39.642;22.430;2024-02-28T11:43:19;21.58;;;11.93;;
65477;SDS011;53678;39.642;22.430;2024-02-28T11:45:46;22.70;;;12.43;;
65477;SDS011;53678;39.642;22.430;2024-02-28T11:48:13;19.10;;;11.20;;
65477;SDS011;53678;39.642;22.430;2024-02-28T11:50:39;20.73;;;11.68;;
65477;SDS011;53678;39.642;22.430;2024-02-28T11:53:05;23.27;;;13.05;;
65477;SDS011;53678;39.642;22.430;2024-02-28T11:55:32;20.70;;;13.70;;
65477;SDS011;53678;39.642;22.430;2024-02-28T11:57:58;26.70;;;12.68;;
65477;SDS011;53678;39.642;22.430;2024-02-28T12:00:24;22.60;;;13.60;;
65477;SDS011;53678;39.642;22.430;2024-02-28T12:02:51;29.25;;;14.25;;
65477;SDS011;53678;39.642;22.430;2024-02-28T12:05:19;25.08;;;14.05;;
65477;SDS011;53678;39.642;22.430;2024-02-28T12:07:45;22.00;;;13.55;;
65477;SDS011;53678;39.642;22.430;2024-02-28T12:10:11;28.48;;;14.18;;
65477;SDS011;53678;39.642;22.430;2024-02-28T12:12:38;22.10;;;13.05;;
65477;SDS011;53678;39.642;22.430;2024-02-28T12:15:05;17.38;;;11.45;;
65477;SDS011;53678;39.642;22.430;2024-02-28T12:17:31;20.08;;;10.80;;
65477;SDS011;53678;39.642;22.430;2024-02-28T12:20:00;20.42;;;11.73;;
65477;SDS011;53678;39.642;22.430;2024-02-28T12:22:27;24.15;;;12.05;;
65477;SDS011;53678;39.642;22.430;2024-02-28T12:24:53;19.77;;;11.55;;
65477;SDS011;53678;39.642;22.430;2024-02-28T12:27:18;20.00;;;11.38;;
65477;SDS011;53678;39.642;22.430;2024-02-28T12:29:44;22.50;;;12.93;;
65477;SDS011;53678;39.642;22.430;2024-02-28T12:32:10;18.73;;;11.73;;
65477;SDS011;53678;39.642;22.430;2024-02-28T12:34:37;16.52;;;11.30;;
65477;SDS011;53678;39.642;22.430;2024-02-28T12:37:04;24.98;;;12.93;;
65477;SDS011;53678;39.642;22.430;2024-02-28T12:39:31;25.23;;;12.80;;
65477;SDS011;53678;39.642;22.430;2024-02-28T12:41:59;22.08;;;11.88;;
65477;SDS011;53678;39.642;22.430;2024-02-28T12:44:26;22.73;;;11.77;;
65477;SDS011;53678;39.642;22.430;2024-02-28T12:46:52;24.85;;;11.98;;
65477;SDS011;53678;39.642;22.430;2024-02-28T12:49:18;22.83;;;11.48;;
65477;SDS011;53678;39.642;22.430;2024-02-28T12:51:44;21.40;;;11.23;;
65477;SDS011;53678;39.642;22.430;2024-02-28T12:54:12;21.55;;;12.18;;
65477;SDS011;53678;39.642;22.430;2024-02-28T12:56:41;51.78;;;21.80;;
65477;SDS011;53678;39.642;22.430;2024-02-28T12:59:11;14.43;;;9.48;;
65477;SDS011;53678;39.642;22.430;2024-02-28T13:01:38;18.63;;;10.52;;
65477;SDS011;53678;39.642;22.430;2024-02-28T13:04:04;17.67;;;10.00;;
65477;SDS011;53678;39.642;22.430;2024-02-28T13:06:30;17.52;;;10.38;;
65477;SDS011;53678;39.642;22.430;2024-02-28T13:08:56;17.83;;;12.05;;
65477;SDS011;53678;39.642;22.430;2024-02-28T13:11:22;18.00;;;10.63;;
65477;SDS011;53678;39.642;22.430;2024-02-28T13:13:49;18.10;;;11.40;;
65477;SDS011;53678;39.642;22.430;2024-02-28T13:16:18;21.05;;;12.30;;
65477;SDS011;53678;39.642;22.430;2024-02-28T13:18:46;19.08;;;11.02;;
65477;SDS011;53678;39.642;22.430;2024-02-28T13:21:12;18.40;;;11.48;;
65477;SDS011;53678;39.642;22.430;2024-02-28T13:23:38;19.70;;;11.85;;
65477;SDS011;53678;39.642;22.430;2024-02-28T13:26:04;27.45;;;13.45;;
65477;SDS011;53678;39.642;22.430;2024-02-28T13:28:31;24.35;;;11.88;;
65477;SDS011;53678;39.642;22.430;2024-02-28T13:31:01;18.20;;;11.77;;
65477;SDS011;53678;39.642;22.430;2024-02-28T13:33:28;23.27;;;13.07;;
65477;SDS011;53678;39.642;22.430;2024-02-28T13:35:54;19.98;;;11.77;;
65477;SDS011;53678;39.642;22.430;2024-02-28T13:38:21;24.70;;;13.40;;
65477;SDS011;53678;39.642;22.430;2024-02-28T13:40:47;21.60;;;12.02;;
65477;SDS011;53678;39.642;22.430;2024-02-28T13:43:13;21.30;;;13.27;;
65477;SDS011;53678;39.642;22.430;2024-02-28T13:45:39;27.23;;;13.82;;
65477;SDS011;53678;39.642;22.430;2024-02-28T13:50:47;19.00;;;11.23;;
65477;SDS011;53678;39.642;22.430;2024-02-28T13:53:13;17.02;;;10.13;;
65477;SDS011;53678;39.642;22.430;2024-02-28T13:55:43;20.25;;;11.80;;
65477;SDS011;53678;39.642;22.430;2024-02-28T13:58:10;18.35;;;11.40;;
65477;SDS011;53678;39.642;22.430;2024-02-28T14:00:37;20.40;;;12.07;;
65477;SDS011;53678;39.642;22.430;2024-02-28T14:03:04;18.15;;;11.05;;
65477;SDS011;53678;39.642;22.430;2024-02-28T14:05:33;18.17;;;11.93;;
65477;SDS011;53678;39.642;22.430;2024-02-28T14:07:59;15.57;;;10.40;;
65477;SDS011;53678;39.642;22.430;2024-02-28T14:10:25;22.23;;;13.68;;
65477;SDS011;53678;39.642;22.430;2024-02-28T14:12:51;19.05;;;11.07;;